sensor_id;sensor_type;location;lat;lon;timestamp;P1;durP1;ratioP1;P2;durP2;ratioP2
31694;SDS011;18289;51.330;4.946;2024-01-15T00:00:13;3.40;;;2.30;;
31694;SDS011;18289;51.330;4.946;2024-01-15T00:02:39;5.53;;;1.85;;
31694;SDS011;18289;51.330;4.946;2024-01-15T00:05:05;2.53;;;1.40;;
31694;SDS011;18289;51.330;4.946;2024-01-15T00:07:31;3.83;;;1.63;;
31694;SDS011;18289;51.330;4.946;2024-01-15T00:09:57;1.70;;;1.60;;
31694;SDS011;18289;51.330;4.946;2024-01-15T00:12:22;1.92;;;1.63;;
31694;SDS011;18289;51.330;4.946;2024-01-15T00:14:48;3.28;;;1.60;;
31694;SDS011;18289;51.330;4.946;2024-01-15T00:17:14;2.13;;;1.60;;
31694;SDS011;18289;51.330;4.946;2024-01-15T00:19:39;1.80;;;1.70;;
31694;SDS011;18289;51.330;4.946;2024-01-15T00:22:05;2.13;;;1.70;;
31694;SDS011;18289;51.330;4.946;2024-01-15T00:24:31;3.63;;;2.15;;
31694;SDS011;18289;51.330;4.946;2024-01-15T00:26:56;4.68;;;2.22;;
31694;SDS011;18289;51.330;4.946;2024-01-15T00:29:22;3.28;;;2.22;;
31694;SDS011;18289;51.330;4.946;2024-01-15T00:31:48;4.03;;;2.30;;
31694;SDS011;18289;51.330;4.946;2024-01-15T00:34:13;2.45;;;1.80;;
31694;SDS011;18289;51.330;4.946;2024-01-15T00:36:39;4.47;;;1.63;;
31694;SDS011;18289;51.330;4.946;2024-01-15T00:39:05;4.03;;;1.80;;
31694;SDS011;18289;51.330;4.946;2024-01-15T00:41:31;3.15;;;1.80;;
31694;SDS011;18289;51.330;4.946;2024-01-15T00:43:56;3.75;;;1.88;;
31694;SDS011;18289;51.330;4.946;2024-01-15T00:46:22;5.95;;;2.10;;
31694;SDS011;18289;51.330;4.946;2024-01-15T00:48:48;3.60;;;2.33;;
31694;SDS011;18289;51.330;4.946;2024-01-15T00:51:14;5.05;;;2.10;;
31694;SDS011;18289;51.330;4.946;2024-01-15T00:53:39;3.55;;;2.35;;
31694;SDS011;18289;51.330;4.946;2024-01-15T00:56:05;2.75;;;2.15;;
31694;SDS011;18289;51.330;4.946;2024-01-15T00:58:31;2.95;;;1.90;;
31694;SDS011;18289;51.330;4.946;2024-01-15T01:00:56;3.03;;;2.28;;
31694;SDS011;18289;51.330;4.946;2024-01-15T01:03:22;5.43;;;2.20;;
31694;SDS011;18289;51.330;4.946;2024-01-15T01:05:48;6.18;;;2.90;;
31694;SDS011;18289;51.330;4.946;2024-01-15T01:08:15;5.38;;;2.08;;
31694;SDS011;18289;51.330;4.946;2024-01-15T01:10:41;3.58;;;1.83;;
31694;SDS011;18289;51.330;4.946;2024-01-15T01:13:09;3.42;;;2.00;;
31694;SDS011;18289;51.330;4.946;2024-01-15T01:15:35;4.10;;;1.90;;
31694;SDS011;18289;51.330;4.946;2024-01-15T01:18:02;2.22;;;1.70;;
31694;SDS011;18289;51.330;4.946;2024-01-15T01:20:28;4.97;;;1.60;;
31694;SDS011;18289;51.330;4.946;2024-01-15T01:22:54;2.33;;;1.50;;
31694;SDS011;18289;51.330;4.946;2024-01-15T01:25:19;4.60;;;1.33;;
31694;SDS011;18289;51.330;4.946;2024-01-15T01:27:45;1.90;;;1.40;;
31694;SDS011;18289;51.330;4.946;2024-01-15T01:30:11;2.45;;;1.23;;
31694;SDS011;18289;51.330;4.946;2024-01-15T01:32:37;2.97;;;2.33;;
31694;SDS011;18289;51.330;4.946;2024-01-15T01:35:02;3.50;;;1.60;;
31694;SDS011;18289;51.330;4.946;2024-01-15T01:37:28;2.92;;;1.77;;
31694;SDS011;18289;51.330;4.946;2024-01-15T01:39:54;2.97;;;1.60;;
31694;SDS011;18289;51.330;4.946;2024-01-15T01:42:20;2.25;;;1.90;;
31694;SDS011;18289;51.330;4.946;2024-01-15T01:44:45;4.07;;;1.85;;
31694;SDS011;18289;51.330;4.946;2024-01-15T01:47:11;2.47;;;1.90;;
31694;SDS011;18289;51.330;4.946;2024-01-15T01:49:38;4.53;;;1.83;;
31694;SDS011;18289;51.330;4.946;2024-01-15T01:52:05;2.83;;;1.35;;
31694;SDS011;18289;51.330;4.946;2024-01-15T01:54:34;2.42;;;1.95;;
31694;SDS011;18289;51.330;4.946;2024-01-15T01:57:02;5.18;;;1.70;;
31694;SDS011;18289;51.330;4.946;2024-01-15T01:59:28;2.92;;;1.65;;
31694;SDS011;18289;51.330;4.946;2024-01-15T02:01:57;1.92;;;1.30;;
31694;SDS011;18289;51.330;4.946;2024-01-15T02:04:23;3.50;;;1.63;;
31694;SDS011;18289;51.330;4.946;2024-01-15T02:06:50;4.13;;;1.55;;
31694;SDS011;18289;51.330;4.946;2024-01-15T02:09:16;4.40;;;1.45;;
31694;SDS011;18289;51.330;4.946;2024-01-15T02:14:11;1.60;;;1.50;;
31694;SDS011;18289;51.330;4.946;2024-01-15T02:16:37;4.38;;;1.92;;
31694;SDS011;18289;51.330;4.946;2024-01-15T02:19:03;8.13;;;1.88;;
31694;SDS011;18289;51.330;4.946;2024-01-15T02:21:29;2.85;;;1.50;;
31694;SDS011;18289;51.330;4.946;2024-01-15T02:23:56;3.38;;;1.70;;
31694;SDS011;18289;51.330;4.946;2024-01-15T02:26:22;5.50;;;1.50;;
31694;SDS011;18289;51.330;4.946;2024-01-15T02:28:48;4.30;;;1.92;;
31694;SDS011;18289;51.330;4.946;2024-01-15T02:31:15;2.50;;;1.25;;
31694;SDS011;18289;51.330;4.946;2024-01-15T02:33:42;5.45;;;1.60;;
31694;SDS011;18289;51.330;4.946;2024-01-15T02:36:08;3.58;;;1.45;;
31694;SDS011;18289;51.330;4.946;2024-01-15T02:38:34;3.05;;;1.58;;
31694;SDS011;18289;51.330;4.946;2024-01-15T02:41:00;5.15;;;1.77;;
31694;SDS011;18289;51.330;4.946;2024-01-15T02:43:25;2.80;;;1.40;;
31694;SDS011;18289;51.330;4.946;2024-01-15T02:45:51;5.53;;;1.35;;
31694;SDS011;18289;51.330;4.946;2024-01-15T02:48:17;2.55;;;1.13;;
31694;SDS011;18289;51.330;4.946;2024-01-15T02:50:42;2.78;;;1.58;;
31694;SDS011;18289;51.330;4.946;2024-01-15T02:53:08;3.38;;;1.20;;
31694;SDS011;18289;51.330;4.946;2024-01-15T02:55:34;5.88;;;1.20;;
31694;SDS011;18289;51.330;4.946;2024-01-15T02:57:59;3.53;;;1.40;;
31694;SDS011;18289;51.330;4.946;2024-01-15T03:00:25;2.28;;;1.27;;
31694;SDS011;18289;51.330;4.946;2024-01-15T03:02:51;6.03;;;2.15;;
31694;SDS011;18289;51.330;4.946;2024-01-15T03:05:16;4.43;;;1.45;;
31694;SDS011;18289;51.330;4.946;2024-01-15T03:07:42;3.28;;;1.70;;
31694;SDS011;18289;51.330;4.946;2024-01-15T03:10:08;4.55;;;1.55;;
31694;SDS011;18289;51.330;4.946;2024-01-15T03:12:34;3.63;;;1.45;;
31694;SDS011;18289;51.330;4.946;2024-01-15T03:15:00;4.13;;;1.60;;
31694;SDS011;18289;51.330;4.946;2024-01-15T03:17:26;5.32;;;1.67;;
31694;SDS011;18289;51.330;4.946;2024-01-15T03:19:52;4.28;;;1.80;;
31694;SDS011;18289;51.330;4.946;2024-01-15T03:22:18;4.15;;;1.80;;
31694;SDS011;18289;51.330;4.946;2024-01-15T03:24:44;3.95;;;1.85;;
31694;SDS011;18289;51.330;4.946;2024-01-15T03:27:09;7.90;;;2.10;;
31694;SDS011;18289;51.330;4.946;2024-01-15T03:29:35;7.03;;;2.03;;
31694;SDS011;18289;51.330;4.946;2024-01-15T03:32:01;5.95;;;1.65;;
31694;SDS011;18289;51.330;4.946;2024-01-15T03:34:26;6.07;;;1.65;;
31694;SDS011;18289;51.330;4.946;2024-01-15T03:36:52;2.15;;;1.80;;
31694;SDS011;18289;51.330;4.946;2024-01-15T03:39:18;3.78;;;1.55;;
31694;SDS011;18289;51.330;4.946;2024-01-15T03:41:43;4.78;;;1.58;;
31694;SDS011;18289;51.330;4.946;2024-01-15T03:44:10;4.53;;;1.70;;
31694;SDS011;18289;51.330;4.946;2024-01-15T03:46:35;3.72;;;1.92;;
31694;SDS011;18289;51.330;4.946;2024-01-15T03:49:01;3.22;;;1.98;;
31694;SDS011;18289;51.330;4.946;2024-01-15T03:51:27;8.32;;;2.00;;
31694;SDS011;18289;51.330;4.946;2024-01-15T03:53:53;4.15;;;2.22;;
31694;SDS011;18289;51.330;4.946;2024-01-15T03:56:18;8.30;;;2.20;;
31694;SDS011;18289;51.330;4.946;2024-01-15T03:58:44;7.40;;;2.13;;
31694;SDS011;18289;51.330;4.946;2024-01-15T04:01:10;3.38;;;2.17;;
31694;SDS011;18289;51.330;4.946;2024-01-15T04:03:36;6.68;;;2.50;;
31694;SDS011;18289;51.330;4.946;2024-01-15T04:06:02;5.82;;;2.17;;
31694;SDS011;18289;51.330;4.946;2024-01-15T04:08:28;2.95;;;1.88;;
31694;SDS011;18289;51.330;4.946;2024-01-15T04:10:54;8.68;;;2.13;;
31694;SDS011;18289;51.330;4.946;2024-01-15T04:13:20;3.60;;;2.50;;
31694;SDS011;18289;51.330;4.946;2024-01-15T04:15:45;5.60;;;2.15;;
31694;SDS011;18289;51.330;4.946;2024-01-15T04:18:11;5.40;;;2.28;;
31694;SDS011;18289;51.330;4.946;2024-01-15T04:20:37;7.43;;;2.00;;
31694;SDS011;18289;51.330;4.946;2024-01-15T04:23:03;1.75;;;1.65;;
31694;SDS011;18289;51.330;4.946;2024-01-15T04:25:29;8.75;;;1.75;;
31694;SDS011;18289;51.330;4.946;2024-01-15T04:27:55;5.80;;;2.35;;
31694;SDS011;18289;51.330;4.946;2024-01-15T04:30:21;2.90;;;1.55;;
31694;SDS011;18289;51.330;4.946;2024-01-15T04:32:47;11.27;;;1.85;;
31694;SDS011;18289;51.330;4.946;2024-01-15T04:35:12;2.42;;;1.52;;
31694;SDS011;18289;51.330;4.946;2024-01-15T04:40:06;8.02;;;1.77;;
31694;SDS011;18289;51.330;4.946;2024-01-15T04:42:33;6.60;;;1.65;;
31694;SDS011;18289;51.330;4.946;2024-01-15T04:47:26;6.30;;;2.15;;
31694;SDS011;18289;51.330;4.946;2024-01-15T04:49:52;9.77;;;2.05;;
31694;SDS011;18289;51.330;4.946;2024-01-15T04:52:18;5.38;;;2.58;;
31694;SDS011;18289;51.330;4.946;2024-01-15T04:54:43;4.07;;;2.22;;
31694;SDS011;18289;51.330;4.946;2024-01-15T04:57:09;6.20;;;2.15;;
31694;SDS011;18289;51.330;4.946;2024-01-15T04:59:35;6.10;;;1.80;;
31694;SDS011;18289;51.330;4.946;2024-01-15T05:02:00;7.28;;;2.35;;
31694;SDS011;18289;51.330;4.946;2024-01-15T05:04:26;11.45;;;2.38;;
31694;SDS011;18289;51.330;4.946;2024-01-15T05:06:52;7.32;;;2.60;;
31694;SDS011;18289;51.330;4.946;2024-01-15T05:09:18;5.63;;;2.42;;
31694;SDS011;18289;51.330;4.946;2024-01-15T05:11:44;8.90;;;2.72;;
31694;SDS011;18289;51.330;4.946;2024-01-15T05:14:10;4.25;;;2.67;;
31694;SDS011;18289;51.330;4.946;2024-01-15T05:16:38;7.15;;;2.47;;
31694;SDS011;18289;51.330;4.946;2024-01-15T05:19:04;10.27;;;2.63;;
31694;SDS011;18289;51.330;4.946;2024-01-15T05:21:29;7.68;;;2.70;;
31694;SDS011;18289;51.330;4.946;2024-01-15T05:23:55;6.13;;;2.30;;
31694;SDS011;18289;51.330;4.946;2024-01-15T05:26:21;8.23;;;2.45;;
31694;SDS011;18289;51.330;4.946;2024-01-15T05:28:46;8.80;;;2.95;;
31694;SDS011;18289;51.330;4.946;2024-01-15T05:31:12;7.20;;;2.90;;
31694;SDS011;18289;51.330;4.946;2024-01-15T05:33:38;5.20;;;3.03;;
31694;SDS011;18289;51.330;4.946;2024-01-15T05:36:04;9.90;;;3.55;;
31694;SDS011;18289;51.330;4.946;2024-01-15T05:38:30;7.45;;;3.15;;
31694;SDS011;18289;51.330;4.946;2024-01-15T05:40:55;7.13;;;2.97;;
31694;SDS011;18289;51.330;4.946;2024-01-15T05:45:52;5.40;;;2.35;;
31694;SDS011;18289;51.330;4.946;2024-01-15T05:48:18;11.32;;;2.63;;
31694;SDS011;18289;51.330;4.946;2024-01-15T05:50:43;3.17;;;2.40;;
31694;SDS011;18289;51.330;4.946;2024-01-15T05:53:09;5.75;;;2.88;;
31694;SDS011;18289;51.330;4.946;2024-01-15T05:55:35;2.55;;;2.05;;
31694;SDS011;18289;51.330;4.946;2024-01-15T05:58:02;3.70;;;1.73;;
31694;SDS011;18289;51.330;4.946;2024-01-15T06:00:28;4.82;;;1.70;;
31694;SDS011;18289;51.330;4.946;2024-01-15T06:02:54;4.68;;;1.65;;
31694;SDS011;18289;51.330;4.946;2024-01-15T06:05:20;2.80;;;1.95;;
31694;SDS011;18289;51.330;4.946;2024-01-15T06:07:45;2.45;;;1.80;;
31694;SDS011;18289;51.330;4.946;2024-01-15T06:10:11;3.20;;;1.95;;
31694;SDS011;18289;51.330;4.946;2024-01-15T06:12:37;3.42;;;2.00;;
31694;SDS011;18289;51.330;4.946;2024-01-15T06:15:02;3.70;;;1.60;;
31694;SDS011;18289;51.330;4.946;2024-01-15T06:17:28;2.70;;;1.63;;
31694;SDS011;18289;51.330;4.946;2024-01-15T06:19:54;2.38;;;1.80;;
31694;SDS011;18289;51.330;4.946;2024-01-15T06:22:20;2.10;;;1.45;;
31694;SDS011;18289;51.330;4.946;2024-01-15T06:24:45;3.83;;;1.90;;
31694;SDS011;18289;51.330;4.946;2024-01-15T06:27:11;5.50;;;2.42;;
31694;SDS011;18289;51.330;4.946;2024-01-15T06:29:37;5.18;;;2.25;;
31694;SDS011;18289;51.330;4.946;2024-01-15T06:32:04;3.22;;;2.15;;
31694;SDS011;18289;51.330;4.946;2024-01-15T06:34:30;5.55;;;2.30;;
31694;SDS011;18289;51.330;4.946;2024-01-15T06:36:55;5.72;;;2.80;;
31694;SDS011;18289;51.330;4.946;2024-01-15T06:39:21;2.70;;;2.42;;
31694;SDS011;18289;51.330;4.946;2024-01-15T06:41:47;5.30;;;2.50;;
31694;SDS011;18289;51.330;4.946;2024-01-15T06:44:13;8.55;;;2.92;;
31694;SDS011;18289;51.330;4.946;2024-01-15T06:46:42;8.95;;;3.50;;
31694;SDS011;18289;51.330;4.946;2024-01-15T06:49:08;6.72;;;3.75;;
31694;SDS011;18289;51.330;4.946;2024-01-15T06:51:35;7.03;;;3.58;;
31694;SDS011;18289;51.330;4.946;2024-01-15T06:54:00;3.53;;;2.97;;
31694;SDS011;18289;51.330;4.946;2024-01-15T06:56:27;8.77;;;3.47;;
31694;SDS011;18289;51.330;4.946;2024-01-15T06:58:52;6.88;;;3.22;;
31694;SDS011;18289;51.330;4.946;2024-01-15T07:01:18;6.80;;;3.28;;
31694;SDS011;18289;51.330;4.946;2024-01-15T07:03:44;4.90;;;3.00;;
31694;SDS011;18289;51.330;4.946;2024-01-15T07:06:10;5.05;;;2.90;;
31694;SDS011;18289;51.330;4.946;2024-01-15T07:08:36;5.50;;;2.60;;
31694;SDS011;18289;51.330;4.946;2024-01-15T07:11:06;5.28;;;2.65;;
31694;SDS011;18289;51.330;4.946;2024-01-15T07:13:32;5.35;;;2.47;;
31694;SDS011;18289;51.330;4.946;2024-01-15T07:15:58;4.85;;;2.50;;
31694;SDS011;18289;51.330;4.946;2024-01-15T07:18:24;4.25;;;2.30;;
31694;SDS011;18289;51.330;4.946;2024-01-15T07:20:50;2.70;;;2.08;;
31694;SDS011;18289;51.330;4.946;2024-01-15T07:23:16;2.97;;;2.00;;
31694;SDS011;18289;51.330;4.946;2024-01-15T07:25:42;5.03;;;2.20;;
31694;SDS011;18289;51.330;4.946;2024-01-15T07:28:08;2.90;;;2.50;;
31694;SDS011;18289;51.330;4.946;2024-01-15T07:30:34;2.60;;;2.30;;
31694;SDS011;18289;51.330;4.946;2024-01-15T07:33:00;2.90;;;2.53;;
31694;SDS011;18289;51.330;4.946;2024-01-15T07:35:26;3.60;;;3.13;;
31694;SDS011;18289;51.330;4.946;2024-01-15T07:37:51;5.07;;;3.17;;
31694;SDS011;18289;51.330;4.946;2024-01-15T07:40:17;5.40;;;3.08;;
31694;SDS011;18289;51.330;4.946;2024-01-15T07:42:43;5.22;;;3.42;;
31694;SDS011;18289;51.330;4.946;2024-01-15T07:45:09;5.03;;;3.53;;
31694;SDS011;18289;51.330;4.946;2024-01-15T07:47:36;3.55;;;3.25;;
31694;SDS011;18289;51.330;4.946;2024-01-15T07:50:02;4.20;;;3.00;;
31694;SDS011;18289;51.330;4.946;2024-01-15T07:52:29;4.25;;;3.25;;
31694;SDS011;18289;51.330;4.946;2024-01-15T07:54:55;4.30;;;2.60;;
31694;SDS011;18289;51.330;4.946;2024-01-15T07:57:21;4.72;;;3.10;;
31694;SDS011;18289;51.330;4.946;2024-01-15T07:59:47;3.83;;;2.78;;
31694;SDS011;18289;51.330;4.946;2024-01-15T08:02:13;4.45;;;2.88;;
31694;SDS011;18289;51.330;4.946;2024-01-15T08:04:39;3.55;;;3.25;;
31694;SDS011;18289;51.330;4.946;2024-01-15T08:07:05;4.60;;;2.95;;
31694;SDS011;18289;51.330;4.946;2024-01-15T08:09:32;4.65;;;3.10;;
31694;SDS011;18289;51.330;4.946;2024-01-15T08:11:58;3.60;;;2.95;;
31694;SDS011;18289;51.330;4.946;2024-01-15T08:14:24;5.47;;;2.97;;
31694;SDS011;18289;51.330;4.946;2024-01-15T08:16:50;3.80;;;2.42;;
31694;SDS011;18289;51.330;4.946;2024-01-15T08:19:16;3.78;;;2.83;;
31694;SDS011;18289;51.330;4.946;2024-01-15T08:21:41;3.00;;;2.65;;
31694;SDS011;18289;51.330;4.946;2024-01-15T08:24:07;4.00;;;3.47;;
31694;SDS011;18289;51.330;4.946;2024-01-15T08:26:34;5.60;;;4.20;;
31694;SDS011;18289;51.330;4.946;2024-01-15T08:28:59;4.50;;;4.07;;
31694;SDS011;18289;51.330;4.946;2024-01-15T08:31:25;7.07;;;4.28;;
31694;SDS011;18289;51.330;4.946;2024-01-15T08:33:52;6.20;;;3.70;;
31694;SDS011;18289;51.330;4.946;2024-01-15T08:36:18;7.57;;;3.30;;
31694;SDS011;18289;51.330;4.946;2024-01-15T08:38:44;7.32;;;3.72;;
31694;SDS011;18289;51.330;4.946;2024-01-15T08:41:10;6.00;;;3.60;;
31694;SDS011;18289;51.330;4.946;2024-01-15T08:43:35;5.40;;;3.42;;
31694;SDS011;18289;51.330;4.946;2024-01-15T08:46:02;6.18;;;3.40;;
31694;SDS011;18289;51.330;4.946;2024-01-15T08:48:28;4.18;;;3.15;;
31694;SDS011;18289;51.330;4.946;2024-01-15T08:50:54;5.82;;;3.50;;
31694;SDS011;18289;51.330;4.946;2024-01-15T08:53:20;8.50;;;3.22;;
31694;SDS011;18289;51.330;4.946;2024-01-15T08:55:46;5.25;;;3.30;;
31694;SDS011;18289;51.330;4.946;2024-01-15T08:58:12;6.97;;;3.92;;
31694;SDS011;18289;51.330;4.946;2024-01-15T09:00:38;4.90;;;3.60;;
31694;SDS011;18289;51.330;4.946;2024-01-15T09:03:04;4.60;;;3.78;;
31694;SDS011;18289;51.330;4.946;2024-01-15T09:05:30;5.75;;;4.13;;
31694;SDS011;18289;51.330;4.946;2024-01-15T09:07:56;9.18;;;4.30;;
31694;SDS011;18289;51.330;4.946;2024-01-15T09:10:22;8.15;;;4.30;;
31694;SDS011;18289;51.330;4.946;2024-01-15T09:12:47;5.55;;;3.47;;
31694;SDS011;18289;51.330;4.946;2024-01-15T09:15:14;10.27;;;4.63;;
31694;SDS011;18289;51.330;4.946;2024-01-15T09:17:40;6.03;;;4.32;;
31694;SDS011;18289;51.330;4.946;2024-01-15T09:20:06;6.82;;;4.65;;
31694;SDS011;18289;51.330;4.946;2024-01-15T09:22:32;8.30;;;4.72;;
31694;SDS011;18289;51.330;4.946;2024-01-15T09:24:58;9.65;;;4.93;;
31694;SDS011;18289;51.330;4.946;2024-01-15T09:27:24;7.68;;;5.32;;
31694;SDS011;18289;51.330;4.946;2024-01-15T09:29:53;9.32;;;4.65;;
31694;SDS011;18289;51.330;4.946;2024-01-15T09:32:19;7.55;;;3.90;;
31694;SDS011;18289;51.330;4.946;2024-01-15T09:34:48;4.85;;;3.80;;
31694;SDS011;18289;51.330;4.946;2024-01-15T09:37:14;9.40;;;4.63;;
31694;SDS011;18289;51.330;4.946;2024-01-15T09:39:40;7.45;;;4.40;;
31694;SDS011;18289;51.330;4.946;2024-01-15T09:42:06;7.15;;;4.25;;
31694;SDS011;18289;51.330;4.946;2024-01-15T09:44:33;7.65;;;4.28;;
31694;SDS011;18289;51.330;4.946;2024-01-15T09:46:59;9.23;;;4.70;;
31694;SDS011;18289;51.330;4.946;2024-01-15T09:49:25;8.75;;;3.92;;
31694;SDS011;18289;51.330;4.946;2024-01-15T09:51:51;8.35;;;4.40;;
31694;SDS011;18289;51.330;4.946;2024-01-15T09:54:17;9.65;;;3.97;;
31694;SDS011;18289;51.330;4.946;2024-01-15T09:56:46;6.70;;;4.32;;
31694;SDS011;18289;51.330;4.946;2024-01-15T09:59:18;7.50;;;3.58;;
31694;SDS011;18289;51.330;4.946;2024-01-15T10:01:45;11.32;;;3.90;;
31694;SDS011;18289;51.330;4.946;2024-01-15T10:04:12;9.77;;;3.83;;
31694;SDS011;18289;51.330;4.946;2024-01-15T10:06:39;10.60;;;2.83;;
31694;SDS011;18289;51.330;4.946;2024-01-15T10:09:08;8.90;;;3.05;;
31694;SDS011;18289;51.330;4.946;2024-01-15T10:11:34;11.85;;;3.25;;
31694;SDS011;18289;51.330;4.946;2024-01-15T10:14:00;11.05;;;3.53;;
31694;SDS011;18289;51.330;4.946;2024-01-15T10:16:26;11.07;;;2.90;;
31694;SDS011;18289;51.330;4.946;2024-01-15T10:18:52;6.18;;;2.28;;
31694;SDS011;18289;51.330;4.946;2024-01-15T10:21:18;6.05;;;2.28;;
31694;SDS011;18289;51.330;4.946;2024-01-15T10:23:44;4.00;;;1.85;;
31694;SDS011;18289;51.330;4.946;2024-01-15T10:26:09;3.25;;;1.98;;
31694;SDS011;18289;51.330;4.946;2024-01-15T10:28:37;2.75;;;1.98;;
31694;SDS011;18289;51.330;4.946;2024-01-15T10:31:02;2.83;;;1.70;;
31694;SDS011;18289;51.330;4.946;2024-01-15T10:33:29;4.25;;;2.08;;
31694;SDS011;18289;51.330;4.946;2024-01-15T10:35:56;3.90;;;1.75;;
31694;SDS011;18289;51.330;4.946;2024-01-15T10:38:22;3.38;;;1.85;;
31694;SDS011;18289;51.330;4.946;2024-01-15T10:40:52;3.55;;;1.70;;
31694;SDS011;18289;51.330;4.946;2024-01-15T10:43:18;1.60;;;1.50;;
31694;SDS011;18289;51.330;4.946;2024-01-15T10:45:45;3.03;;;1.55;;
31694;SDS011;18289;51.330;4.946;2024-01-15T10:48:11;1.70;;;1.60;;
31694;SDS011;18289;51.330;4.946;2024-01-15T10:50:37;3.22;;;1.55;;
31694;SDS011;18289;51.330;4.946;2024-01-15T10:53:04;2.83;;;1.80;;
31694;SDS011;18289;51.330;4.946;2024-01-15T10:55:30;1.80;;;1.20;;
31694;SDS011;18289;51.330;4.946;2024-01-15T10:57:58;1.52;;;1.42;;
31694;SDS011;18289;51.330;4.946;2024-01-15T11:00:24;2.63;;;1.60;;
31694;SDS011;18289;51.330;4.946;2024-01-15T11:02:51;1.48;;;1.38;;
31694;SDS011;18289;51.330;4.946;2024-01-15T11:07:47;2.60;;;1.70;;
31694;SDS011;18289;51.330;4.946;2024-01-15T11:10:56;3.17;;;2.95;;
31694;SDS011;18289;51.330;4.946;2024-01-15T11:13:03;2.83;;;1.73;;
31694;SDS011;18289;51.330;4.946;2024-01-15T11:18:01;3.08;;;2.10;;
31694;SDS011;18289;51.330;4.946;2024-01-15T11:20:28;2.05;;;1.50;;
31694;SDS011;18289;51.330;4.946;2024-01-15T11:22:56;3.47;;;1.63;;
31694;SDS011;18289;51.330;4.946;2024-01-15T11:25:24;2.30;;;1.70;;
31694;SDS011;18289;51.330;4.946;2024-01-15T11:30:29;4.13;;;3.00;;
31694;SDS011;18289;51.330;4.946;2024-01-15T11:32:55;4.45;;;3.47;;
31694;SDS011;18289;51.330;4.946;2024-01-15T11:35:20;4.78;;;3.60;;
31694;SDS011;18289;51.330;4.946;2024-01-15T11:43:02;4.30;;;2.10;;
31694;SDS011;18289;51.330;4.946;2024-01-15T11:45:29;6.55;;;2.60;;
31694;SDS011;18289;51.330;4.946;2024-01-15T11:50:27;3.05;;;2.33;;
31694;SDS011;18289;51.330;4.946;2024-01-15T11:53:02;5.53;;;2.58;;
31694;SDS011;18289;51.330;4.946;2024-01-15T11:55:36;2.67;;;1.90;;
31694;SDS011;18289;51.330;4.946;2024-01-15T11:58:10;4.97;;;2.08;;
31694;SDS011;18289;51.330;4.946;2024-01-15T12:00:47;3.03;;;1.65;;
31694;SDS011;18289;51.330;4.946;2024-01-15T12:03:16;3.00;;;1.70;;
31694;SDS011;18289;51.330;4.946;2024-01-15T12:05:42;4.97;;;1.85;;
31694;SDS011;18289;51.330;4.946;2024-01-15T12:08:08;2.78;;;1.50;;
31694;SDS011;18289;51.330;4.946;2024-01-15T12:10:36;2.85;;;1.50;;
31694;SDS011;18289;51.330;4.946;2024-01-15T12:15:37;1.60;;;1.50;;
31694;SDS011;18289;51.330;4.946;2024-01-15T12:18:06;2.60;;;1.77;;
31694;SDS011;18289;51.330;4.946;2024-01-15T12:20:33;1.52;;;1.40;;
31694;SDS011;18289;51.330;4.946;2024-01-15T12:22:59;1.60;;;1.50;;
31694;SDS011;18289;51.330;4.946;2024-01-15T12:25:26;2.63;;;1.40;;
31694;SDS011;18289;51.330;4.946;2024-01-15T12:27:52;1.67;;;1.45;;
31694;SDS011;18289;51.330;4.946;2024-01-15T12:30:19;3.50;;;1.30;;
31694;SDS011;18289;51.330;4.946;2024-01-15T12:32:45;1.70;;;1.60;;
31694;SDS011;18289;51.330;4.946;2024-01-15T12:35:14;1.83;;;1.52;;
31694;SDS011;18289;51.330;4.946;2024-01-15T12:37:43;3.00;;;1.52;;
31694;SDS011;18289;51.330;4.946;2024-01-15T12:40:11;2.25;;;1.80;;
31694;SDS011;18289;51.330;4.946;2024-01-15T12:42:37;2.05;;;1.40;;
31694;SDS011;18289;51.330;4.946;2024-01-15T12:47:33;1.70;;;1.30;;
31694;SDS011;18289;51.330;4.946;2024-01-15T12:49:59;1.40;;;1.20;;
31694;SDS011;18289;51.330;4.946;2024-01-15T12:52:28;1.50;;;1.40;;
31694;SDS011;18289;51.330;4.946;2024-01-15T12:54:54;2.05;;;1.58;;
31694;SDS011;18289;51.330;4.946;2024-01-15T12:57:20;2.47;;;1.48;;
31694;SDS011;18289;51.330;4.946;2024-01-15T12:59:46;2.75;;;1.50;;
31694;SDS011;18289;51.330;4.946;2024-01-15T13:02:12;1.75;;;1.40;;
31694;SDS011;18289;51.330;4.946;2024-01-15T13:04:38;2.13;;;1.40;;
31694;SDS011;18289;51.330;4.946;2024-01-15T13:07:07;2.78;;;1.60;;
31694;SDS011;18289;51.330;4.946;2024-01-15T13:09:33;1.35;;;1.25;;
31694;SDS011;18289;51.330;4.946;2024-01-15T13:12:00;2.08;;;1.38;;
31694;SDS011;18289;51.330;4.946;2024-01-15T13:14:30;2.67;;;1.80;;
31694;SDS011;18289;51.330;4.946;2024-01-15T13:16:57;1.95;;;1.77;;
31694;SDS011;18289;51.330;4.946;2024-01-15T13:19:24;1.58;;;1.42;;
31694;SDS011;18289;51.330;4.946;2024-01-15T13:21:50;2.13;;;1.40;;
31694;SDS011;18289;51.330;4.946;2024-01-15T13:24:16;1.75;;;1.60;;
31694;SDS011;18289;51.330;4.946;2024-01-15T13:26:42;2.00;;;1.63;;
31694;SDS011;18289;51.330;4.946;2024-01-15T13:29:08;1.67;;;1.58;;
31694;SDS011;18289;51.330;4.946;2024-01-15T13:31:34;2.58;;;1.63;;
31694;SDS011;18289;51.330;4.946;2024-01-15T13:34:00;2.65;;;1.63;;
31694;SDS011;18289;51.330;4.946;2024-01-15T13:36:26;2.50;;;1.20;;
31694;SDS011;18289;51.330;4.946;2024-01-15T13:38:52;2.13;;;1.65;;
31694;SDS011;18289;51.330;4.946;2024-01-15T13:41:22;4.70;;;1.60;;
31694;SDS011;18289;51.330;4.946;2024-01-15T13:43:52;3.90;;;1.80;;
31694;SDS011;18289;51.330;4.946;2024-01-15T13:46:18;2.65;;;2.05;;
31694;SDS011;18289;51.330;4.946;2024-01-15T13:48:48;4.70;;;2.92;;
31694;SDS011;18289;51.330;4.946;2024-01-15T13:51:14;4.03;;;2.80;;
31694;SDS011;18289;51.330;4.946;2024-01-15T13:53:40;9.07;;;3.42;;
31694;SDS011;18289;51.330;4.946;2024-01-15T13:56:06;5.60;;;3.53;;
31694;SDS011;18289;51.330;4.946;2024-01-15T13:58:33;6.55;;;3.17;;
31694;SDS011;18289;51.330;4.946;2024-01-15T14:01:00;5.80;;;2.70;;
31694;SDS011;18289;51.330;4.946;2024-01-15T14:03:26;3.47;;;2.40;;
31694;SDS011;18289;51.330;4.946;2024-01-15T14:05:52;4.40;;;1.70;;
31694;SDS011;18289;51.330;4.946;2024-01-15T14:08:17;1.83;;;1.63;;
31694;SDS011;18289;51.330;4.946;2024-01-15T14:10:43;2.75;;;1.50;;
31694;SDS011;18289;51.330;4.946;2024-01-15T14:13:10;3.85;;;1.50;;
31694;SDS011;18289;51.330;4.946;2024-01-15T14:15:35;3.85;;;1.77;;
31694;SDS011;18289;51.330;4.946;2024-01-15T14:18:01;3.05;;;2.20;;
31694;SDS011;18289;51.330;4.946;2024-01-15T14:20:27;3.75;;;1.95;;
31694;SDS011;18289;51.330;4.946;2024-01-15T14:22:53;2.55;;;1.40;;
31694;SDS011;18289;51.330;4.946;2024-01-15T14:25:21;1.67;;;1.30;;
31694;SDS011;18289;51.330;4.946;2024-01-15T14:27:49;4.10;;;1.65;;
31694;SDS011;18289;51.330;4.946;2024-01-15T14:30:16;3.55;;;2.20;;
31694;SDS011;18289;51.330;4.946;2024-01-15T14:32:42;4.03;;;1.92;;
31694;SDS011;18289;51.330;4.946;2024-01-15T14:35:08;3.65;;;1.80;;
31694;SDS011;18289;51.330;4.946;2024-01-15T14:37:38;5.22;;;2.03;;
31694;SDS011;18289;51.330;4.946;2024-01-15T14:40:07;5.88;;;1.63;;
31694;SDS011;18289;51.330;4.946;2024-01-15T14:42:33;3.72;;;2.50;;
31694;SDS011;18289;51.330;4.946;2024-01-15T14:44:59;3.65;;;2.47;;
31694;SDS011;18289;51.330;4.946;2024-01-15T14:47:27;5.88;;;2.10;;
31694;SDS011;18289;51.330;4.946;2024-01-15T14:49:54;5.60;;;2.47;;
31694;SDS011;18289;51.330;4.946;2024-01-15T14:52:22;5.63;;;2.92;;
31694;SDS011;18289;51.330;4.946;2024-01-15T14:54:48;6.18;;;2.55;;
31694;SDS011;18289;51.330;4.946;2024-01-15T14:57:14;4.88;;;2.75;;
31694;SDS011;18289;51.330;4.946;2024-01-15T14:59:40;4.60;;;2.05;;
31694;SDS011;18289;51.330;4.946;2024-01-15T15:02:06;4.05;;;2.00;;
31694;SDS011;18289;51.330;4.946;2024-01-15T15:04:32;6.30;;;2.80;;
31694;SDS011;18289;51.330;4.946;2024-01-15T15:06:58;5.07;;;2.45;;
31694;SDS011;18289;51.330;4.946;2024-01-15T15:09:23;4.63;;;1.75;;
31694;SDS011;18289;51.330;4.946;2024-01-15T15:11:49;5.05;;;1.80;;